Time,TemperatureF,DewpointF,PressureIn,WindDirection,WindDirectionDegrees,WindSpeedMPH,WindSpeedGustMPH,Humidity,HourlyPrecipIn,Conditions,Clouds,dailyrainin,SoftwareType,DateUTC
2013-02-07 00:01:00,20.0,11.0,-100.00,East,80,2.0,3.0,67,-99.99,,,-99.99,,2013-02-07 07:01:00,
2013-02-07 00:11:00,20.0,12.0,-100.00,East,93,1.0,3.0,68,-99.99,,,-99.99,,2013-02-07 07:11:00,
2013-02-07 00:21:00,20.0,12.0,-100.00,East,93,1.0,3.0,68,-99.99,,,-99.99,,2013-02-07 07:21:00,
2013-02-07 00:31:00,20.0,12.0,-100.00,East,93,1.0,3.0,68,-99.99,,,-99.99,,2013-02-07 07:31:00,
2013-02-07 00:41:00,20.0,11.0,-100.00,WSW,242,1.0,4.0,68,-99.99,,,-99.99,,2013-02-07 07:41:00,
2013-02-07 00:52:00,20.0,8.0,-100.00,WSW,247,2.0,4.0,60,-99.99,,,-99.99,,2013-02-07 07:52:00,
2013-02-07 01:01:00,20.0,8.0,-100.00,WSW,247,2.0,4.0,60,-99.99,,,-99.99,,2013-02-07 08:01:00,
2013-02-07 01:11:00,20.0,10.0,-100.00,WSW,243,2.0,3.0,65,-99.99,,,-99.99,,2013-02-07 08:11:00,
2013-02-07 01:21:00,20.0,10.0,-100.00,WSW,243,2.0,3.0,65,-99.99,,,-99.99,,2013-02-07 08:21:00,
2013-02-07 01:31:00,20.0,10.0,-100.00,WSW,243,2.0,3.0,65,-99.99,,,-99.99,,2013-02-07 08:31:00,
2013-02-07 01:41:00,20.0,9.0,-100.00,WSW,238,3.0,4.0,61,-99.99,,,-99.99,,2013-02-07 08:41:00,
2013-02-07 01:52:00,20.0,9.0,-100.00,WSW,238,3.0,4.0,61,-99.99,,,-99.99,,2013-02-07 08:52:00,
2013-02-07 02:01:00,20.0,9.0,-100.00,WSW,238,3.0,4.0,61,-99.99,,,-99.99,,2013-02-07 09:01:00,
2013-02-07 02:11:00,20.0,8.0,-100.00,SSE,165,2.0,3.0,59,-99.99,,,-99.99,,2013-02-07 09:11:00,
2013-02-07 02:21:00,20.0,8.0,-100.00,SSE,165,2.0,3.0,59,-99.99,,,-99.99,,2013-02-07 09:21:00,
2013-02-07 02:31:00,20.0,8.0,-100.00,SSE,165,2.0,3.0,59,-99.99,,,-99.99,,2013-02-07 09:31:00,
2013-02-07 02:41:00,19.0,3.0,-100.00,SSW,197,1.0,3.0,49,-99.99,,,-99.99,,2013-02-07 09:41:00,
2013-02-07 02:52:00,19.0,7.0,-100.00,SE,130,2.0,3.0,59,-99.99,,,-99.99,,2013-02-07 09:52:00,
2013-02-07 03:01:00,19.0,7.0,-100.00,SE,130,2.0,3.0,59,-99.99,,,-99.99,,2013-02-07 10:01:00,
2013-02-07 03:11:00,19.0,10.0,-100.00,SSE,167,1.0,3.0,66,-99.99,,,-99.99,,2013-02-07 10:11:00,
2013-02-07 03:22:00,19.0,10.0,-100.00,SSE,167,1.0,3.0,66,-99.99,,,-99.99,,2013-02-07 10:22:00,
2013-02-07 03:31:00,19.0,10.0,-100.00,SSE,167,1.0,3.0,66,-99.99,,,-99.99,,2013-02-07 10:31:00,
2013-02-07 03:41:00,20.0,5.0,-100.00,East,91,0.0,2.0,52,-99.99,,,-99.99,,2013-02-07 10:41:00,
2013-02-07 03:52:00,20.0,5.0,-100.00,SSE,149,0.0,2.0,50,-99.99,,,-99.99,,2013-02-07 10:52:00,
2013-02-07 04:01:00,20.0,5.0,-100.00,SSE,149,0.0,2.0,50,-99.99,,,-99.99,,2013-02-07 11:01:00,
2013-02-07 04:11:00,20.0,6.0,-100.00,SW,224,2.0,3.0,53,-99.99,,,-99.99,,2013-02-07 11:11:00,
2013-02-07 04:22:00,20.0,6.0,-100.00,SW,224,2.0,3.0,53,-99.99,,,-99.99,,2013-02-07 11:22:00,
2013-02-07 04:32:00,20.0,6.0,-100.00,SW,224,2.0,3.0,53,-99.99,,,-99.99,,2013-02-07 11:32:00,
2013-02-07 04:43:00,21.0,4.0,-100.00,SW,222,0.0,1.0,48,-99.99,,,-99.99,,2013-02-07 11:43:00,
2013-02-07 04:52:00,21.0,4.0,-100.00,SW,222,0.0,1.0,48,-99.99,,,-99.99,,2013-02-07 11:52:00,
2013-02-07 05:02:00,21.0,2.0,-100.00,ESE,117,2.0,3.0,41,-99.99,,,-99.99,,2013-02-07 12:02:00,
2013-02-07 05:11:00,22.0,-1.0,-100.00,SE,130,2.0,3.0,35,-99.99,,,-99.99,,2013-02-07 12:11:00,
2013-02-07 05:22:00,22.0,-1.0,-100.00,SE,130,2.0,3.0,35,-99.99,,,-99.99,,2013-02-07 12:22:00,
2013-02-07 05:32:00,22.0,-1.0,-100.00,SE,130,2.0,3.0,35,-99.99,,,-99.99,,2013-02-07 12:32:00,
2013-02-07 05:42:00,22.0,-5.0,-100.00,West,268,1.0,3.0,29,-99.99,,,-99.99,,2013-02-07 12:42:00,
2013-02-07 05:53:00,22.0,-5.0,-100.00,West,268,1.0,3.0,29,-99.99,,,-99.99,,2013-02-07 12:53:00,
2013-02-07 06:02:00,22.0,-6.0,-100.00,East,84,0.0,1.0,28,-99.99,,,-99.99,,2013-02-07 13:02:00,
2013-02-07 06:11:00,22.0,-3.0,-100.00,SE,145,1.0,2.0,33,-99.99,,,-99.99,,2013-02-07 13:11:00,
2013-02-07 06:21:00,22.0,-3.0,-100.00,SE,145,1.0,2.0,33,-99.99,,,-99.99,,2013-02-07 13:21:00,
2013-02-07 06:31:00,22.0,-3.0,-100.00,SE,145,1.0,2.0,33,-99.99,,,-99.99,,2013-02-07 13:31:00,
2013-02-07 06:42:00,21.0,-4.0,-100.00,South,190,0.0,3.0,32,-99.99,,,-99.99,,2013-02-07 13:42:00,
2013-02-07 06:52:00,21.0,-4.0,-100.00,South,190,0.0,3.0,32,-99.99,,,-99.99,,2013-02-07 13:52:00,
2013-02-07 07:01:00,23.0,-13.0,-100.00,SW,236,1.0,5.0,19,-99.99,,,-99.99,,2013-02-07 14:01:00,
2013-02-07 07:11:00,24.0,-14.0,-100.00,SW,236,3.0,7.0,17,-99.99,,,-99.99,,2013-02-07 14:11:00,
2013-02-07 07:21:00,24.0,-14.0,-100.00,SW,236,3.0,7.0,17,-99.99,,,-99.99,,2013-02-07 14:21:00,
2013-02-07 07:31:00,24.0,-14.0,-100.00,SW,236,3.0,7.0,17,-99.99,,,-99.99,,2013-02-07 14:31:00,
2013-02-07 07:41:00,24.0,-14.0,-100.00,South,179,3.0,9.0,17,-99.99,,,-99.99,,2013-02-07 14:41:00,
2013-02-07 07:52:00,24.0,-14.0,-100.00,South,179,3.0,9.0,17,-99.99,,,-99.99,,2013-02-07 14:52:00,
2013-02-07 08:01:00,24.0,-14.0,-100.00,South,179,3.0,9.0,17,-99.99,,,-99.99,,2013-02-07 15:01:00,
2013-02-07 08:11:00,24.0,-15.0,-100.00,SE,127,7.0,11.0,17,-99.99,,,-99.99,,2013-02-07 15:11:00,
2013-02-07 08:22:00,24.0,-15.0,-100.00,SE,127,7.0,11.0,17,-99.99,,,-99.99,,2013-02-07 15:22:00,
2013-02-07 08:41:00,24.0,-13.0,-100.00,SE,125,5.0,10.0,17,-99.99,,,-99.99,,2013-02-07 15:41:00,
2013-02-07 08:52:00,24.0,-13.0,-100.00,SE,125,5.0,10.0,17,-99.99,,,-99.99,,2013-02-07 15:52:00,
2013-02-07 09:01:00,25.0,-11.0,-100.00,ENE,77,2.0,5.0,19,-99.99,,,-99.99,,2013-02-07 16:01:00,
2013-02-07 09:11:00,23.0,-8.0,-100.00,ENE,63,2.0,6.0,24,-99.99,,,-99.99,,2013-02-07 16:11:00,
2013-02-07 09:21:00,23.0,-8.0,-100.00,ENE,63,2.0,6.0,24,-99.99,,,-99.99,,2013-02-07 16:21:00,
2013-02-07 09:31:00,23.0,-8.0,-100.00,ENE,63,2.0,6.0,24,-99.99,,,-99.99,,2013-02-07 16:31:00,
2013-02-07 09:41:00,25.0,-11.0,-100.00,SE,136,4.0,14.0,19,-99.99,,,-99.99,,2013-02-07 16:41:00,
2013-02-07 09:52:00,29.0,-12.0,-100.00,SE,144,11.0,18.0,15,-99.99,,,-99.99,,2013-02-07 16:52:00,
2013-02-07 10:01:00,29.0,-12.0,-100.00,SE,144,11.0,18.0,15,-99.99,,,-99.99,,2013-02-07 17:01:00,
2013-02-07 10:11:00,31.0,-10.0,-100.00,ESE,114,7.0,15.0,16,-99.99,,,-99.99,,2013-02-07 17:11:00,
2013-02-07 10:42:00,31.0,-9.0,-100.00,SE,128,8.0,15.0,16,-99.99,,,-99.99,,2013-02-07 17:42:00,
2013-02-07 10:52:00,32.0,-9.0,-100.00,SE,140,6.0,13.0,16,-99.99,,,-99.99,,2013-02-07 17:52:00,
2013-02-07 11:01:00,32.0,-9.0,-100.00,SE,140,6.0,13.0,16,-99.99,,,-99.99,,2013-02-07 18:01:00,
2013-02-07 11:11:00,32.0,-8.0,-100.00,SSE,154,8.0,17.0,17,-99.99,,,-99.99,,2013-02-07 18:11:00,
2013-02-07 11:22:00,32.0,-8.0,-100.00,SSE,154,8.0,17.0,17,-99.99,,,-99.99,,2013-02-07 18:22:00,
2013-02-07 11:41:00,33.0,-3.0,-100.00,South,170,9.0,17.0,20,-99.99,,,-99.99,,2013-02-07 18:41:00,
2013-02-07 11:52:00,33.0,-3.0,-100.00,South,170,9.0,17.0,20,-99.99,,,-99.99,,2013-02-07 18:52:00,
2013-02-07 12:01:00,33.0,-2.0,-100.00,SSE,167,10.0,20.0,21,-99.99,,,-99.99,,2013-02-07 19:01:00,
2013-02-07 12:11:00,34.0,-2.0,-100.00,South,174,9.0,16.0,20,-99.99,,,-99.99,,2013-02-07 19:11:00,
2013-02-07 12:22:00,34.0,-2.0,-100.00,South,174,9.0,16.0,20,-99.99,,,-99.99,,2013-02-07 19:22:00,
2013-02-07 12:31:00,34.0,-2.0,-100.00,South,174,9.0,16.0,20,-99.99,,,-99.99,,2013-02-07 19:31:00,
2013-02-07 12:41:00,36.0,-5.0,-100.00,SSE,157,9.0,15.0,16,-99.99,,,-99.99,,2013-02-07 19:41:00,
2013-02-07 12:52:00,36.0,-5.0,-100.00,SSE,157,9.0,15.0,16,-99.99,,,-99.99,,2013-02-07 19:52:00,
2013-02-07 13:01:00,35.0,-4.0,-100.00,SSE,152,8.0,13.0,18,-99.99,,,-99.99,,2013-02-07 20:01:00,
2013-02-07 13:11:00,34.0,-3.0,-100.00,SSE,156,8.0,15.0,19,-99.99,,,-99.99,,2013-02-07 20:11:00,
2013-02-07 13:21:00,34.0,-3.0,-100.00,SSE,156,8.0,15.0,19,-99.99,,,-99.99,,2013-02-07 20:21:00,
2013-02-07 13:31:00,34.0,-3.0,-100.00,SSE,156,8.0,15.0,19,-99.99,,,-99.99,,2013-02-07 20:31:00,
2013-02-07 13:41:00,34.0,0.0,-100.00,SSE,167,6.0,14.0,23,-99.99,,,-99.99,,2013-02-07 20:41:00,
2013-02-07 13:52:00,35.0,2.0,-100.00,South,169,5.0,15.0,24,-99.99,,,-99.99,,2013-02-07 20:52:00,
2013-02-07 14:01:00,35.0,2.0,-100.00,South,169,5.0,15.0,24,-99.99,,,-99.99,,2013-02-07 21:01:00,
2013-02-07 14:11:00,35.0,1.0,-100.00,SSE,150,7.0,16.0,23,-99.99,,,-99.99,,2013-02-07 21:11:00,
2013-02-07 14:21:00,35.0,1.0,-100.00,SSE,150,7.0,16.0,23,-99.99,,,-99.99,,2013-02-07 21:21:00,
2013-02-07 14:31:00,35.0,1.0,-100.00,SSE,150,7.0,16.0,23,-99.99,,,-99.99,,2013-02-07 21:31:00,
2013-02-07 14:41:00,33.0,2.0,-100.00,SE,133,11.0,19.0,26,-99.99,,,-99.99,,2013-02-07 21:41:00,
2013-02-07 14:52:00,33.0,2.0,-100.00,SE,133,11.0,19.0,26,-99.99,,,-99.99,,2013-02-07 21:52:00,
2013-02-07 15:02:00,32.0,1.0,-100.00,SE,131,15.0,21.0,26,-99.99,,,-99.99,,2013-02-07 22:02:00,
2013-02-07 15:11:00,32.0,1.0,-100.00,SE,129,11.0,16.0,26,-99.99,,,-99.99,,2013-02-07 22:11:00,
2013-02-07 15:21:00,32.0,1.0,-100.00,SE,129,11.0,16.0,26,-99.99,,,-99.99,,2013-02-07 22:21:00,
2013-02-07 15:31:00,32.0,1.0,-100.00,SE,129,11.0,16.0,26,-99.99,,,-99.99,,2013-02-07 22:31:00,
2013-02-07 15:42:00,32.0,-2.0,-100.00,SE,143,11.0,18.0,23,-99.99,,,-99.99,,2013-02-07 22:42:00,
2013-02-07 15:52:00,32.0,-2.0,-100.00,SE,143,11.0,18.0,23,-99.99,,,-99.99,,2013-02-07 22:52:00,
2013-02-07 16:01:00,32.0,0.0,-100.00,SE,132,13.0,20.0,25,-99.99,,,-99.99,,2013-02-07 23:01:00,
2013-02-07 16:11:00,31.0,1.0,-100.00,SE,130,13.0,22.0,27,-99.99,,,-99.99,,2013-02-07 23:11:00,
2013-02-07 16:21:00,31.0,1.0,-100.00,SE,130,13.0,22.0,27,-99.99,,,-99.99,,2013-02-07 23:21:00,
2013-02-07 16:31:00,31.0,1.0,-100.00,SE,130,13.0,22.0,27,-99.99,,,-99.99,,2013-02-07 23:31:00,
2013-02-07 16:41:00,31.0,4.0,-100.00,SE,132,13.0,22.0,30,-99.99,,,-99.99,,2013-02-07 23:41:00,
2013-02-07 16:52:00,31.0,4.0,-100.00,SE,132,13.0,22.0,30,-99.99,,,-99.99,,2013-02-07 23:52:00,
2013-02-07 17:01:00,31.0,5.0,-100.00,SE,131,13.0,22.0,32,-99.99,,,-99.99,,2013-02-08 00:01:00,
2013-02-07 17:11:00,31.0,5.0,-100.00,SE,136,12.0,18.0,33,-99.99,,,-99.99,,2013-02-08 00:11:00,
2013-02-07 17:21:00,31.0,5.0,-100.00,SE,136,12.0,18.0,33,-99.99,,,-99.99,,2013-02-08 00:21:00,
2013-02-07 17:31:00,31.0,5.0,-100.00,SE,136,12.0,18.0,33,-99.99,,,-99.99,,2013-02-08 00:31:00,
2013-02-07 17:41:00,30.0,6.0,-100.00,SE,135,14.0,21.0,34,-99.99,,,-99.99,,2013-02-08 00:41:00,
2013-02-07 17:52:00,30.0,6.0,-100.00,SE,135,14.0,21.0,34,-99.99,,,-99.99,,2013-02-08 00:52:00,
2013-02-07 18:01:00,30.0,6.0,-100.00,SE,137,12.0,17.0,35,-99.99,,,-99.99,,2013-02-08 01:01:00,
2013-02-07 18:11:00,30.0,7.0,-100.00,SE,137,12.0,19.0,36,-99.99,,,-99.99,,2013-02-08 01:11:00,
2013-02-07 18:21:00,30.0,7.0,-100.00,SE,137,12.0,19.0,36,-99.99,,,-99.99,,2013-02-08 01:21:00,
2013-02-07 18:31:00,30.0,7.0,-100.00,SE,137,12.0,19.0,36,-99.99,,,-99.99,,2013-02-08 01:31:00,
2013-02-07 18:41:00,29.0,7.0,-100.00,SE,141,14.0,22.0,38,-99.99,,,-99.99,,2013-02-08 01:41:00,
2013-02-07 18:52:00,29.0,6.0,-100.00,SE,146,13.0,21.0,36,-99.99,,,-99.99,,2013-02-08 01:52:00,
2013-02-07 19:01:00,29.0,6.0,-100.00,SE,146,13.0,21.0,36,-99.99,,,-99.99,,2013-02-08 02:01:00,
2013-02-07 19:11:00,29.0,6.0,-100.00,SSE,155,15.0,24.0,35,-99.99,,,-99.99,,2013-02-08 02:11:00,
2013-02-07 19:21:00,29.0,6.0,-100.00,SSE,155,15.0,24.0,35,-99.99,,,-99.99,,2013-02-08 02:21:00,
2013-02-07 19:31:00,29.0,6.0,-100.00,SSE,155,15.0,24.0,35,-99.99,,,-99.99,,2013-02-08 02:31:00,
2013-02-07 19:42:00,29.0,8.0,-100.00,SSE,153,16.0,22.0,39,-99.99,,,-99.99,,2013-02-08 02:42:00,
2013-02-07 19:52:00,29.0,8.0,-100.00,SSE,153,16.0,22.0,39,-99.99,,,-99.99,,2013-02-08 02:52:00,
2013-02-07 20:01:00,29.0,8.0,-100.00,SSE,152,16.0,24.0,40,-99.99,,,-99.99,,2013-02-08 03:01:00,
2013-02-07 20:12:00,28.0,8.0,-100.00,SSE,152,14.0,20.0,41,-99.99,,,-99.99,,2013-02-08 03:12:00,
2013-02-07 20:22:00,28.0,8.0,-100.00,SSE,152,14.0,20.0,41,-99.99,,,-99.99,,2013-02-08 03:22:00,
2013-02-07 20:31:00,28.0,8.0,-100.00,SSE,152,14.0,20.0,41,-99.99,,,-99.99,,2013-02-08 03:31:00,
2013-02-07 20:41:00,27.0,9.0,-100.00,SSE,153,14.0,20.0,44,-99.99,,,-99.99,,2013-02-08 03:41:00,
2013-02-07 20:52:00,27.0,9.0,-100.00,SSE,153,14.0,20.0,44,-99.99,,,-99.99,,2013-02-08 03:52:00,
2013-02-07 21:01:00,27.0,9.0,-100.00,SSE,153,12.0,21.0,45,-99.99,,,-99.99,,2013-02-08 04:01:00,
2013-02-07 21:11:00,27.0,9.0,-100.00,SSE,147,13.0,19.0,46,-99.99,,,-99.99,,2013-02-08 04:11:00,
2013-02-07 21:21:00,27.0,9.0,-100.00,SSE,147,13.0,19.0,46,-99.99,,,-99.99,,2013-02-08 04:21:00,
2013-02-07 21:30:00,27.0,10.0,-100.00,SSE,151,17.0,25.0,47,-99.99,,,-99.99,,2013-02-08 04:30:00,
2013-02-07 21:31:00,27.0,9.0,-100.00,SSE,147,13.0,19.0,46,-99.99,,,-99.99,,2013-02-08 04:31:00,
2013-02-07 21:41:00,27.0,9.0,-100.00,SSE,150,16.0,23.0,46,-99.99,,,-99.99,,2013-02-08 04:41:00,
2013-02-07 21:52:00,27.0,9.0,-100.00,SSE,150,16.0,23.0,46,-99.99,,,-99.99,,2013-02-08 04:52:00,
2013-02-07 22:01:00,27.0,10.0,-100.00,SSE,151,17.0,25.0,47,-99.99,,,-99.99,,2013-02-08 05:01:00,
2013-02-07 22:11:00,27.0,10.0,-100.00,SSE,151,17.0,25.0,47,-99.99,,,-99.99,,2013-02-08 05:11:00,
2013-02-07 22:22:00,27.0,10.0,-100.00,SSE,151,17.0,25.0,47,-99.99,,,-99.99,,2013-02-08 05:22:00,
2013-02-07 22:42:00,26.0,10.0,-100.00,SSE,150,17.0,25.0,48,-99.99,,,-99.99,,2013-02-08 05:42:00,
2013-02-07 22:52:00,26.0,10.0,-100.00,SSE,150,17.0,25.0,48,-99.99,,,-99.99,,2013-02-08 05:52:00,
2013-02-07 23:01:00,26.0,10.0,-100.00,SSE,155,16.0,26.0,51,-99.99,,,-99.99,,2013-02-08 06:01:00,
2013-02-07 23:11:00,25.0,10.0,-100.00,SSE,159,14.0,23.0,51,-99.99,,,-99.99,,2013-02-08 06:11:00,
2013-02-07 23:21:00,25.0,10.0,-100.00,SSE,159,14.0,23.0,51,-99.99,,,-99.99,,2013-02-08 06:21:00,
2013-02-07 23:31:00,25.0,10.0,-100.00,SSE,159,14.0,23.0,51,-99.99,,,-99.99,,2013-02-08 06:31:00,
2013-02-07 23:41:00,25.0,11.0,-100.00,SSE,153,18.0,25.0,53,-99.99,,,-99.99,,2013-02-08 06:41:00,
2013-02-07 23:52:00,25.0,11.0,-100.00,SSE,153,18.0,25.0,53,-99.99,,,-99.99,,2013-02-08 06:52:00,